Boothbay, ME (04537)

10:37 AM EDT on September 05, 2015 (GMT -0400)
Boothbay Region Water District | | Change Station
CLOSE
Current Station
Personal Weather Station
Location: Boothbay, ME
Elevation: 62 ft
Nearby Weather Stations

Elev 62 ft 43.89 °N, 69.63 °W | Updated 2 minutes ago

Clear
Clear
69.6 °F
Feels Like 69.6 °F
N
4.0
Wind Variable Wind from WSW
Gusts 9.0 mph

Today
High -- | Low -- °F
--% Chance of Precip.
Yesterday
High -- | Low -- °F
Precip. -- in
6:06 AM 7:07 PM
Waning Gibbous, 48% visible
Pressure 30.31 in
Visibility 10.0 miles
Clouds Clear
Dew Point 59 °F
Humidity 68%
Rainfall 0.00 in
Snow Depth Not available.
UV 5 out of 12
Pollen 7.60 out of 12
Air Quality Not available.
Flu Activity Not available.
METAR KIWI 051353Z AUTO 20004KT 10SM CLR 20/14 A3031 RMK AO2 SLP263 T02000139
Pressure 30.31 in
Visibility 10.0 miles
Clouds Clear
Dew Point 59 °F
Humidity 68%
Rainfall 0.00 in
Snow Depth Not available.
UV 5 out of 12
Pollen 7.60 out of 12
Air Quality Not available.
Flu Activity Not available.
METAR KIWI 051353Z AUTO 20004KT 10SM CLR 20/14 A3031 RMK AO2 SLP263 T02000139

10-Day Weather Forecast

×

Almanac

Astronomy

Sep. 05, 2015 Rise Set
Actual Time
Civil Twilight
Nautical Twilight
Astronomical Twilight
Moon
Length of Visible Light
Length of Day
Tomorrow will be .
, % of the Moon is Illuminated

Today's Extremes

State Highs State Lows

Community

WunderPhotos

Upload Photos

1,852,475 photos uploaded!

WunderBlogs® & News

Nearby

Air Quality

  Air Quality AQ Index Pollutant
Not available.

Snow Depth

Station Depth Elevation

Earthquake Activity

City Distance Mag. Time & Date
Minimum magnitude displayed is 2.5.

Coastal Water Temperatures

Place Temperature

Stations

Nearby Weather Stations

Station Location Temp. Windchill Dew Point Humidity Wind Precip. Elev Updated Type